createdAt,value
2022-09-25T00:01:12.281Z,23.80
2022-09-25T00:03:40.594Z,25.90
2022-09-25T00:06:15.736Z,23.63
2022-09-25T00:08:43.950Z,21.10
2022-09-25T00:11:15.565Z,26.47
2022-09-25T00:13:43.584Z,25.33
2022-09-25T00:16:15.096Z,20.60
2022-09-25T00:19:01.576Z,18.20
2022-09-25T00:21:31.139Z,23.13
2022-09-25T00:24:06.399Z,24.43
2022-09-25T00:26:39.205Z,24.37
2022-09-25T00:29:10.604Z,18.73
2022-09-25T00:31:37.474Z,22.70
2022-09-25T00:34:06.075Z,27.57
2022-09-25T00:36:34.062Z,26.53
2022-09-25T00:39:02.295Z,26.40
2022-09-25T00:41:31.892Z,26.90
2022-09-25T00:44:01.503Z,27.20
2022-09-25T00:46:38.680Z,21.37
2022-09-25T00:49:18.156Z,25.90
2022-09-25T00:52:00.888Z,26.47
2022-09-25T00:54:36.577Z,26.67
2022-09-25T00:57:08.884Z,24.80
2022-09-25T00:59:47.511Z,22.23
2022-09-25T01:02:24.743Z,25.23
2022-09-25T01:04:52.016Z,23.53
2022-09-25T01:07:20.117Z,23.07
2022-09-25T01:09:47.083Z,19.77
2022-09-25T01:12:13.971Z,21.20
2022-09-25T01:14:41.731Z,24.37
2022-09-25T01:17:29.575Z,18.70
2022-09-25T01:20:18.242Z,19.40
2022-09-25T01:23:01.546Z,19.40
2022-09-25T01:25:39.666Z,15.17
2022-09-25T01:28:40.341Z,24.00
2022-09-25T01:31:27.410Z,18.93
2022-09-25T01:34:15.262Z,16.50
2022-09-25T01:36:57.850Z,22.50
2022-09-25T01:39:37.096Z,24.40
2022-09-25T01:42:21.328Z,19.80
2022-09-25T01:45:03.077Z,27.27
2022-09-25T01:47:37.720Z,21.73
2022-09-25T01:50:14.085Z,19.33
2022-09-25T01:52:49.611Z,20.10
2022-09-25T01:55:42.264Z,21.10
2022-09-25T01:58:23.924Z,14.27
2022-09-25T02:01:04.961Z,18.67
2022-09-25T02:03:47.354Z,29.67
2022-09-25T02:06:20.728Z,14.53
2022-09-25T02:08:56.990Z,17.50
2022-09-25T02:11:32.810Z,15.20
2022-09-25T02:14:10.892Z,20.97
2022-09-25T02:16:44.241Z,19.13
2022-09-25T02:19:33.924Z,15.67
2022-09-25T02:22:31.376Z,16.63
2022-09-25T02:25:12.571Z,13.83
2022-09-25T02:27:39.803Z,15.77
2022-09-25T02:30:07.399Z,13.27
2022-09-25T02:32:34.501Z,14.47
2022-09-25T02:35:01.574Z,13.40
2022-09-25T02:37:29.771Z,10.87
2022-09-25T02:40:02.016Z,15.50
2022-09-25T02:42:48.149Z,14.63
2022-09-25T02:45:51.011Z,20.00
2022-09-25T02:48:46.366Z,13.40
2022-09-25T02:51:41.914Z,13.93
2022-09-25T02:54:31.567Z,13.53
2022-09-25T02:57:34.189Z,13.23
2022-09-25T03:00:07.625Z,13.07
2022-09-25T03:02:37.725Z,12.20
2022-09-25T03:05:10.023Z,13.30
2022-09-25T03:07:57.941Z,13.77
2022-09-25T03:10:27.977Z,9.60
2022-09-25T03:12:55.016Z,11.47
2022-09-25T03:15:25.276Z,10.00
2022-09-25T03:17:52.198Z,9.47
2022-09-25T03:20:19.188Z,11.93
2022-09-25T03:22:46.193Z,13.63
2022-09-25T03:25:13.553Z,12.67
2022-09-25T03:27:40.644Z,13.23
2022-09-25T03:30:08.999Z,11.17
2022-09-25T03:32:36.092Z,10.03
2022-09-25T03:35:03.107Z,14.47
2022-09-25T03:37:31.178Z,12.20
2022-09-25T03:39:58.912Z,11.30
2022-09-25T03:42:28.250Z,14.03
2022-09-25T03:44:55.207Z,13.50
2022-09-25T03:47:22.319Z,14.23
2022-09-25T03:49:49.275Z,10.43
2022-09-25T03:52:16.149Z,13.13
2022-09-25T03:54:43.872Z,13.97
2022-09-25T03:57:12.718Z,15.73
2022-09-25T03:59:39.696Z,15.13
2022-09-25T04:02:06.970Z,14.63
2022-09-25T04:04:33.885Z,15.60
2022-09-25T04:07:00.730Z,15.27
2022-09-25T04:09:27.618Z,14.47
2022-09-25T04:11:56.099Z,14.97
2022-09-25T04:14:24.051Z,13.33
2022-09-25T04:16:51.450Z,14.03
2022-09-25T04:19:18.350Z,16.63
2022-09-25T04:21:45.175Z,13.17
2022-09-25T04:24:30.542Z,18.17
2022-09-25T04:26:57.393Z,17.77
2022-09-25T04:29:24.755Z,17.23
2022-09-25T04:32:12.117Z,17.57
2022-09-25T04:34:38.941Z,16.20
2022-09-25T04:37:05.852Z,18.50
2022-09-25T04:39:32.824Z,20.13
2022-09-25T04:41:59.672Z,17.87
2022-09-25T04:44:26.744Z,17.77
2022-09-25T04:46:53.626Z,18.33
2022-09-25T04:49:23.386Z,16.77
2022-09-25T04:51:50.236Z,17.67
2022-09-25T04:54:17.211Z,19.33
2022-09-25T04:56:44.613Z,16.67
2022-09-25T04:59:11.769Z,16.47
2022-09-25T05:01:38.998Z,14.63
2022-09-25T05:04:12.803Z,14.27
2022-09-25T05:06:39.978Z,18.77
2022-09-25T05:09:06.908Z,13.17
2022-09-25T05:11:33.897Z,13.13
2022-09-25T05:14:01.252Z,17.07
2022-09-25T05:16:30.665Z,14.10
2022-09-25T05:18:57.493Z,12.33
2022-09-25T05:21:24.432Z,12.00
2022-09-25T05:23:51.331Z,15.60
2022-09-25T05:26:18.129Z,19.63
2022-09-25T05:28:50.045Z,11.67
2022-09-25T05:31:17.451Z,11.47
2022-09-25T05:33:44.397Z,12.17
2022-09-25T05:36:13.205Z,17.20
2022-09-25T05:38:40.870Z,10.50
2022-09-25T05:41:10.464Z,10.83
2022-09-25T05:43:43.194Z,10.83
2022-09-25T05:46:10.887Z,7.20
2022-09-25T05:48:38.288Z,9.53
2022-09-25T05:51:06.117Z,12.83
2022-09-25T05:53:33.035Z,8.93
2022-09-25T05:56:03.454Z,5.93
2022-09-25T05:58:33.612Z,6.43
2022-09-25T06:01:05.871Z,6.57
2022-09-25T06:03:32.985Z,6.73
2022-09-25T06:06:01.149Z,7.27
2022-09-25T06:08:31.088Z,10.37
2022-09-25T06:11:00.703Z,30.57
2022-09-25T06:13:28.741Z,14.07
2022-09-25T06:15:57.102Z,8.17
2022-09-25T06:18:26.258Z,8.33
2022-09-25T06:21:02.450Z,15.30
2022-09-25T06:23:30.068Z,12.23
2022-09-25T06:26:05.753Z,7.83
2022-09-25T06:28:34.413Z,8.53
2022-09-25T06:31:05.490Z,7.50
2022-09-25T06:33:32.905Z,5.87
2022-09-25T06:36:00.915Z,12.00
2022-09-25T06:38:28.540Z,7.00
2022-09-25T06:40:59.783Z,7.77
2022-09-25T06:43:27.942Z,7.30
2022-09-25T06:45:54.842Z,30.13
2022-09-25T06:48:22.355Z,13.27
2022-09-25T06:50:57.042Z,9.37
2022-09-25T06:53:26.382Z,8.40
2022-09-25T06:55:57.795Z,7.27
2022-09-25T06:58:28.882Z,11.37
2022-09-25T07:00:57.309Z,9.33
2022-09-25T07:03:43.315Z,10.63
2022-09-25T07:06:13.867Z,7.40
2022-09-25T07:08:43.576Z,7.33
2022-09-25T07:11:15.371Z,10.67
2022-09-25T07:13:42.623Z,8.60
2022-09-25T07:16:20.949Z,9.07
2022-09-25T07:18:48.642Z,8.57
2022-09-25T07:21:18.687Z,7.10
2022-09-25T07:23:51.872Z,8.30
2022-09-25T07:26:25.682Z,6.47
2022-09-25T07:29:03.435Z,8.83
2022-09-25T07:31:33.287Z,12.47
2022-09-25T07:34:05.781Z,9.03
2022-09-25T07:36:33.076Z,9.37
2022-09-25T07:38:59.915Z,10.90
2022-09-25T07:41:27.818Z,8.43
2022-09-25T07:46:45.798Z,7.33
2022-09-25T07:49:13.226Z,8.80
2022-09-25T07:51:40.140Z,6.37
2022-09-25T07:54:07.531Z,9.93
2022-09-25T07:56:34.669Z,11.10
2022-09-25T07:59:01.616Z,8.03
2022-09-25T08:01:28.746Z,14.67
2022-09-25T08:03:56.205Z,12.67
2022-09-25T08:06:23.092Z,11.03
2022-09-25T08:08:50.011Z,11.00
2022-09-25T08:11:18.184Z,15.83
2022-09-25T08:13:49.352Z,41.13
2022-09-25T08:16:18.910Z,15.00
2022-09-25T08:18:47.342Z,12.47
2022-09-25T08:21:18.792Z,8.37
2022-09-25T08:23:53.592Z,11.43
2022-09-25T08:26:23.036Z,8.60
2022-09-25T08:28:51.686Z,13.90
2022-09-25T08:31:18.827Z,9.50
2022-09-25T08:33:50.326Z,11.30
2022-09-25T08:36:18.523Z,10.30
2022-09-25T08:38:46.298Z,6.00
2022-09-25T08:41:32.341Z,9.23
2022-09-25T08:44:36.118Z,9.83
2022-09-25T08:47:39.588Z,5.10
2022-09-25T08:50:12.424Z,7.07
2022-09-25T08:52:46.193Z,9.13
2022-09-25T08:56:05.152Z,9.13
2022-09-25T08:58:42.555Z,5.23
2022-09-25T09:01:23.020Z,6.87
2022-09-25T09:04:33.566Z,7.00
2022-09-25T09:07:28.736Z,6.27
2022-09-25T09:10:03.703Z,5.93
2022-09-25T09:12:51.413Z,8.90
2022-09-25T09:15:57.383Z,8.00
2022-09-25T09:18:31.107Z,3.87
2022-09-25T09:21:04.699Z,5.10
2022-09-25T09:23:58.523Z,9.47
2022-09-25T09:26:39.910Z,4.73
2022-09-25T09:29:48.096Z,4.10
2022-09-25T09:32:39.826Z,5.03
2022-09-25T09:35:32.791Z,4.27
2022-09-25T09:38:56.507Z,6.20
2022-09-25T09:41:56.515Z,9.37
2022-09-25T09:44:44.552Z,6.63
2022-09-25T09:47:45.492Z,15.97
2022-09-25T09:50:20.880Z,14.93
2022-09-25T09:52:54.053Z,5.87
2022-09-25T09:55:47.974Z,8.77
2022-09-25T09:58:19.104Z,6.10
2022-09-25T10:00:50.149Z,5.60
2022-09-25T10:03:27.951Z,7.40
2022-09-25T10:06:01.356Z,5.27
2022-09-25T10:08:29.122Z,8.07
2022-09-25T10:10:59.211Z,3.60
2022-09-25T10:13:34.263Z,5.00
2022-09-25T10:16:22.014Z,6.67
2022-09-25T10:18:52.391Z,4.10
2022-09-25T10:21:24.343Z,4.20
2022-09-25T10:23:55.044Z,9.07
2022-09-25T10:26:25.091Z,8.70
2022-09-25T10:28:52.568Z,8.03
2022-09-25T10:31:21.092Z,4.77
2022-09-25T10:34:01.693Z,6.33
2022-09-25T10:36:45.810Z,7.33
2022-09-25T10:39:49.232Z,6.20
2022-09-25T10:42:36.506Z,3.50
2022-09-25T10:45:22.300Z,6.23
2022-09-25T10:48:09.840Z,3.03
2022-09-25T10:50:37.162Z,4.87
2022-09-25T10:53:05.551Z,8.73
2022-09-25T10:55:46.246Z,9.60
2022-09-25T10:58:32.625Z,8.60
2022-09-25T11:01:03.904Z,5.93
2022-09-25T11:03:39.129Z,12.00
2022-09-25T11:06:21.113Z,4.80
2022-09-25T11:09:04.875Z,18.83
2022-09-25T11:11:32.025Z,8.37
2022-09-25T11:14:04.254Z,7.70
2022-09-25T11:16:54.266Z,6.07
2022-09-25T11:19:35.513Z,3.27
2022-09-25T11:22:19.952Z,7.43
2022-09-25T11:25:11.802Z,8.53
2022-09-25T11:28:09.428Z,2.83
2022-09-25T11:30:54.949Z,8.93
2022-09-25T11:33:27.795Z,6.10
2022-09-25T11:36:33.216Z,2.67
2022-09-25T11:39:34.605Z,3.33
2022-09-25T11:42:14.381Z,4.13
2022-09-25T11:45:36.691Z,5.10
2022-09-25T11:48:56.068Z,2.77
2022-09-25T11:51:55.636Z,4.47
2022-09-25T11:54:57.680Z,9.03
2022-09-25T11:57:53.532Z,6.70
2022-09-25T12:01:03.836Z,5.67
2022-09-25T12:04:12.757Z,9.90
2022-09-25T12:06:58.553Z,21.37
2022-09-25T12:09:54.124Z,6.77
2022-09-25T12:12:59.276Z,12.07
2022-09-25T12:15:52.171Z,6.13
2022-09-25T12:18:21.843Z,65.80
2022-09-25T12:21:15.198Z,38.57
2022-09-25T12:24:00.959Z,59.43
2022-09-25T12:27:03.642Z,22.77
2022-09-25T12:29:50.617Z,18.10
2022-09-25T12:32:59.005Z,11.23
2022-09-25T12:36:03.332Z,10.67
2022-09-25T12:38:50.324Z,11.03
2022-09-25T12:41:47.095Z,4.73
2022-09-25T12:44:59.132Z,7.40
2022-09-25T12:47:45.861Z,5.50
2022-09-25T12:50:30.592Z,4.50
2022-09-25T12:53:25.686Z,6.03
2022-09-25T12:56:24.169Z,11.80
2022-09-25T12:59:06.122Z,9.07
2022-09-25T13:01:50.187Z,22.60
2022-09-25T13:05:02.449Z,6.50
2022-09-25T13:07:53.894Z,3.27
2022-09-25T13:10:37.078Z,13.63
2022-09-25T13:13:13.143Z,6.30
2022-09-25T13:15:42.875Z,10.40
2022-09-25T13:18:20.804Z,31.87
2022-09-25T13:20:56.815Z,24.73
2022-09-25T13:23:40.747Z,10.47
2022-09-25T13:26:14.146Z,12.07
2022-09-25T13:28:55.859Z,49.70
2022-09-25T13:31:30.262Z,4.47
2022-09-25T13:34:09.810Z,5.30
2022-09-25T13:36:48.033Z,2.97
2022-09-25T13:39:38.843Z,1.70
2022-09-25T13:42:39.824Z,4.80
2022-09-25T13:45:25.263Z,2.23
2022-09-25T13:48:12.682Z,3.23
2022-09-25T13:50:47.129Z,1.80
2022-09-25T13:53:31.190Z,7.67
2022-09-25T13:56:02.147Z,2.87
2022-09-25T13:58:51.778Z,4.67
2022-09-25T14:01:43.733Z,5.83
2022-09-25T14:04:13.572Z,6.20
2022-09-25T14:06:46.868Z,4.20
2022-09-25T14:09:19.691Z,3.70
2022-09-25T14:12:14.925Z,6.87
2022-09-25T14:15:00.847Z,6.73
2022-09-25T14:17:32.100Z,6.30
2022-09-25T14:20:03.539Z,6.13
2022-09-25T14:22:58.770Z,3.70
2022-09-25T14:25:36.094Z,3.60
2022-09-25T14:28:19.565Z,1.70
2022-09-25T14:31:33.086Z,11.63
2022-09-25T14:34:56.586Z,6.40
2022-09-25T14:38:07.413Z,7.17
2022-09-25T14:41:10.581Z,6.40
2022-09-25T14:44:25.704Z,4.87
2022-09-25T14:46:55.435Z,2.40
2022-09-25T14:49:38.513Z,3.00
2022-09-25T14:52:25.495Z,3.37
2022-09-25T14:54:56.998Z,1.30
2022-09-25T14:57:35.546Z,1.63
2022-09-25T15:00:08.255Z,13.47
2022-09-25T15:02:44.888Z,6.37
2022-09-25T15:05:27.289Z,6.63
2022-09-25T15:07:58.874Z,3.57
2022-09-25T15:10:41.413Z,4.43
2022-09-25T15:13:19.846Z,4.60
2022-09-25T15:16:16.424Z,6.93
2022-09-25T15:18:49.212Z,4.50
2022-09-25T15:21:34.830Z,19.40
2022-09-25T15:24:07.361Z,8.70
2022-09-25T15:26:44.884Z,2.50
2022-09-25T15:29:22.830Z,4.87
2022-09-25T15:31:51.568Z,6.27
2022-09-25T15:34:32.625Z,6.13
2022-09-25T15:37:27.549Z,6.47
2022-09-25T15:39:56.915Z,1.13
2022-09-25T15:42:23.882Z,1.27
2022-09-25T15:44:50.760Z,2.87
2022-09-25T15:47:35.963Z,2.87
2022-09-25T15:50:22.607Z,3.07
2022-09-25T15:52:53.878Z,3.80
2022-09-25T15:55:22.454Z,2.53
2022-09-25T15:57:54.430Z,1.23
2022-09-25T16:00:44.721Z,2.10
2022-09-25T16:03:42.300Z,5.60
2022-09-25T16:06:21.246Z,1.90
2022-09-25T16:08:48.347Z,5.43
2022-09-25T16:11:26.465Z,6.43
2022-09-25T16:14:17.882Z,4.07
2022-09-25T16:16:50.872Z,3.37
2022-09-25T16:19:27.226Z,2.63
2022-09-25T16:21:55.117Z,3.93
2022-09-25T16:24:26.445Z,2.43
2022-09-25T16:26:58.330Z,2.33
2022-09-25T16:29:30.335Z,6.90
2022-09-25T16:32:16.868Z,3.73
2022-09-25T16:35:01.730Z,2.83
2022-09-25T16:37:35.700Z,2.67
2022-09-25T16:40:26.022Z,4.60
2022-09-25T16:42:57.502Z,4.20
2022-09-25T16:45:34.153Z,2.53
2022-09-25T16:48:39.133Z,3.63
2022-09-25T16:51:11.224Z,1.40
2022-09-25T16:53:40.032Z,2.00
2022-09-25T16:56:06.971Z,1.77
2022-09-25T16:58:37.297Z,2.07
2022-09-25T17:01:05.099Z,2.43
2022-09-25T17:03:49.676Z,2.90
2022-09-25T17:06:26.286Z,1.97
2022-09-25T17:08:53.780Z,2.77
2022-09-25T17:11:25.175Z,1.33
2022-09-25T17:13:52.334Z,3.23
2022-09-25T17:16:19.289Z,1.60
2022-09-25T17:18:46.269Z,2.43
2022-09-25T17:21:16.356Z,2.90
2022-09-25T17:23:44.535Z,3.37
2022-09-25T17:26:18.767Z,5.73
2022-09-25T17:28:45.776Z,2.23
2022-09-25T17:31:20.047Z,1.80
2022-09-25T17:33:51.713Z,1.67
2022-09-25T17:36:19.310Z,2.00
2022-09-25T17:38:46.358Z,1.80
2022-09-25T17:41:30.347Z,5.30
2022-09-25T17:43:57.853Z,3.17
2022-09-25T17:46:26.532Z,1.97
2022-09-25T17:48:54.891Z,1.90
2022-09-25T17:51:28.272Z,1.47
2022-09-25T17:53:57.415Z,2.90
2022-09-25T17:56:28.033Z,3.07
2022-09-25T17:58:57.263Z,3.10
2022-09-25T18:01:28.458Z,2.23
2022-09-25T18:04:00.971Z,1.73
2022-09-25T18:06:30.277Z,3.53
2022-09-25T18:08:57.646Z,3.23
2022-09-25T18:11:25.899Z,8.10
2022-09-25T18:14:00.909Z,5.93
2022-09-25T18:16:31.387Z,3.90
2022-09-25T18:19:17.878Z,3.37
2022-09-25T18:22:03.185Z,3.40
2022-09-25T18:24:30.165Z,1.70
2022-09-25T18:26:57.982Z,4.23
2022-09-25T18:29:25.213Z,2.40
2022-09-25T18:31:52.557Z,2.70
2022-09-25T18:34:21.570Z,5.07
2022-09-25T18:36:51.628Z,2.37
2022-09-25T18:39:20.298Z,2.30
2022-09-25T18:41:48.333Z,2.17
2022-09-25T18:44:17.578Z,2.93
2022-09-25T18:46:44.781Z,4.17
2022-09-25T18:49:12.271Z,7.03
2022-09-25T18:51:39.955Z,4.90
2022-09-25T18:54:07.158Z,6.43
2022-09-25T18:56:34.561Z,5.13
2022-09-25T18:59:05.666Z,4.07
2022-09-25T19:01:35.228Z,3.00
2022-09-25T19:04:02.402Z,3.37
2022-09-25T19:06:29.330Z,2.17
2022-09-25T19:08:57.872Z,3.80
2022-09-25T19:11:27.142Z,3.30
2022-09-25T19:13:54.883Z,10.43
2022-09-25T19:16:22.720Z,3.50
2022-09-25T19:18:50.772Z,6.87
2022-09-25T19:21:22.621Z,4.03
2022-09-25T19:23:50.711Z,5.63
2022-09-25T19:26:25.798Z,5.43
2022-09-25T19:28:54.114Z,6.73
2022-09-25T19:31:24.728Z,5.93
2022-09-25T19:33:52.297Z,3.77
2022-09-25T19:36:32.390Z,3.43
2022-09-25T19:39:01.587Z,4.63
2022-09-25T19:41:35.385Z,4.67
2022-09-25T19:44:12.905Z,3.57
2022-09-25T19:46:42.729Z,3.40
2022-09-25T19:49:11.490Z,2.80
2022-09-25T19:51:39.064Z,3.07
2022-09-25T19:54:08.459Z,2.80
2022-09-25T19:56:40.843Z,3.27
2022-09-25T19:59:14.772Z,2.67
2022-09-25T20:01:42.960Z,2.40
2022-09-25T20:04:17.244Z,2.83
2022-09-25T20:06:45.957Z,4.43
2022-09-25T20:09:12.912Z,3.10
2022-09-25T20:11:39.936Z,6.97
2022-09-25T20:14:07.733Z,3.93
2022-09-25T20:16:37.325Z,3.10
2022-09-25T20:19:06.806Z,5.33
2022-09-25T20:21:39.201Z,4.00
2022-09-25T20:24:08.366Z,3.60
2022-09-25T20:26:36.374Z,6.37
2022-09-25T20:29:09.137Z,4.80
2022-09-25T20:31:38.512Z,2.60
2022-09-25T20:34:06.146Z,6.00
2022-09-25T20:36:33.271Z,2.43
2022-09-25T20:39:00.878Z,3.80
2022-09-25T20:41:27.758Z,6.00
2022-09-25T20:43:57.228Z,2.30
2022-09-25T20:46:26.320Z,2.33
2022-09-25T20:48:57.482Z,2.70
2022-09-25T20:51:31.606Z,4.07
2022-09-25T20:54:01.939Z,3.13
2022-09-25T20:56:31.262Z,3.33
2022-09-25T20:58:59.971Z,3.33
2022-09-25T21:01:31.769Z,2.97
2022-09-25T21:04:01.469Z,4.07
2022-09-25T21:06:33.199Z,3.20
2022-09-25T21:09:04.482Z,5.67
2022-09-25T21:11:32.905Z,3.97
2022-09-25T21:14:02.562Z,5.00
2022-09-25T21:16:32.305Z,4.03
2022-09-25T21:19:04.732Z,5.00
2022-09-25T21:21:33.663Z,2.57
2022-09-25T21:24:02.167Z,2.60
2022-09-25T21:26:31.818Z,4.23
2022-09-25T21:29:04.725Z,3.87
2022-09-25T21:31:35.308Z,4.63
2022-09-25T21:34:02.643Z,2.90
2022-09-25T21:36:30.464Z,5.87
2022-09-25T21:38:59.829Z,3.73
2022-09-25T21:41:29.968Z,3.03
2022-09-25T21:44:01.136Z,3.07
2022-09-25T21:46:29.612Z,2.73
2022-09-25T21:49:03.968Z,3.63
2022-09-25T21:51:38.704Z,3.57
2022-09-25T21:54:07.763Z,2.70
2022-09-25T21:56:35.001Z,3.00
2022-09-25T21:59:08.161Z,3.77
2022-09-25T22:01:38.566Z,3.20
2022-09-25T22:04:07.796Z,5.60
2022-09-25T22:06:38.949Z,8.07
2022-09-25T22:09:11.127Z,3.73
2022-09-25T22:11:39.553Z,3.57
2022-09-25T22:14:10.829Z,3.83
2022-09-25T22:16:42.531Z,3.57
2022-09-25T22:19:30.039Z,3.33
2022-09-25T22:21:59.419Z,3.13
2022-09-25T22:24:27.291Z,4.17
2022-09-25T22:26:55.948Z,3.90
2022-09-25T22:29:23.583Z,3.63
2022-09-25T22:31:50.984Z,3.23
2022-09-25T22:34:27.999Z,3.60
2022-09-25T22:36:59.648Z,3.40
2022-09-25T22:39:28.733Z,3.03
2022-09-25T22:41:56.436Z,5.53
2022-09-25T22:44:26.196Z,3.87
2022-09-25T22:46:53.536Z,3.10
2022-09-25T22:49:20.446Z,7.53
2022-09-25T22:51:47.389Z,2.97
2022-09-25T22:54:15.281Z,4.47
2022-09-25T22:56:43.550Z,2.83
2022-09-25T22:59:18.427Z,4.93
2022-09-25T23:01:52.737Z,4.37
2022-09-25T23:04:23.630Z,3.97
2022-09-25T23:06:51.184Z,4.10
2022-09-25T23:09:28.500Z,4.23
2022-09-25T23:11:56.982Z,3.60
2022-09-25T23:14:28.971Z,5.63
2022-09-25T23:16:57.343Z,4.50
2022-09-25T23:19:25.129Z,5.00
2022-09-25T23:21:55.486Z,5.27
2022-09-25T23:24:23.430Z,3.17
2022-09-25T23:26:51.194Z,3.73
2022-09-25T23:29:20.734Z,3.83
2022-09-25T23:31:49.398Z,2.90
2022-09-25T23:34:17.456Z,3.00
2022-09-25T23:36:44.596Z,6.60
2022-09-25T23:39:17.604Z,5.97
2022-09-25T23:41:45.001Z,6.40
2022-09-25T23:44:12.583Z,5.33
2022-09-25T23:46:42.499Z,4.87
2022-09-25T23:49:10.934Z,7.27
2022-09-25T23:51:38.513Z,7.87
2022-09-25T23:54:05.899Z,5.33
2022-09-25T23:56:35.311Z,4.20
2022-09-25T23:59:04.298Z,7.80
